Time;durP1;ratioP1;P1;durP2;ratioP2;P2;SDS_P1;SDS_P2;PMS_P1;PMS_P2;Temp;Humidity;BMP_temperature;BMP_pressure;BME280_temperature;BME280_humidity;BME280_pressure;Samples;Min_cycle;Max_cycle;Signal;HPM_P1;HPM_P2
2023/03/07 00:01:50;;;;;;;16.40;9.70;;;2.80;99.90;;;3.29;100.00;96860.59;5040935;28;20556;-76
2023/03/07 00:04:21;;;;;;;17.17;10.30;;;2.80;99.90;;;3.28;100.00;96858.97;5042231;28;20953;-76
2023/03/07 00:06:51;;;;;;;16.77;9.60;;;2.80;99.90;;;3.34;100.00;96857.47;5041111;28;21075;-76
2023/03/07 00:09:22;;;;;;;17.13;9.17;;;2.80;99.90;;;3.32;100.00;96862.84;5040205;28;20461;-77
2023/03/07 00:11:51;;;;;;;22.60;10.53;;;2.80;99.90;;;3.35;100.00;96862.50;5040469;28;20466;-76
2023/03/07 00:14:21;;;;;;;19.20;10.80;;;2.80;99.90;;;3.35;100.00;96856.50;5042619;28;20489;-76
2023/03/07 00:16:51;;;;;;;17.77;9.63;;;2.80;99.90;;;3.32;100.00;96852.50;5042879;28;20951;-76
2023/03/07 00:19:23;;;;;;;19.30;10.17;;;2.80;99.90;;;3.34;100.00;96850.53;5041928;28;20466;-76
2023/03/07 00:21:52;;;;;;;20.80;9.60;;;2.80;99.90;;;3.33;100.00;96848.91;5041606;28;20477;-76
2023/03/07 00:24:23;;;;;;;17.37;9.23;;;2.80;99.90;;;3.33;100.00;96843.75;5040593;28;20564;-76
2023/03/07 00:26:52;;;;;;;15.87;9.67;;;2.80;99.90;;;3.32;100.00;96842.16;5042579;28;20467;-76
2023/03/07 00:29:22;;;;;;;17.33;9.37;;;2.80;99.90;;;3.33;100.00;96842.97;5043301;28;20474;-76
2023/03/07 00:31:51;;;;;;;17.00;8.80;;;2.80;99.90;;;3.29;100.00;96846.88;5043738;28;20488;-76
2023/03/07 00:34:22;;;;;;;17.77;8.93;;;2.80;99.90;;;3.28;100.00;96840.91;5043324;28;20575;-76
2023/03/07 00:36:53;;;;;;;13.03;7.23;;;2.80;99.90;;;3.26;100.00;96845.44;5043922;28;20457;-76
2023/03/07 00:39:24;;;;;;;12.90;7.97;;;2.70;99.90;;;3.28;100.00;96846.06;5043026;28;20954;-76
2023/03/07 00:41:55;;;;;;;14.90;7.90;;;2.70;99.90;;;3.31;100.00;96840.56;5039425;28;20480;-76
2023/03/07 00:44:28;;;;;;;12.50;7.90;;;2.80;99.90;;;3.29;100.00;96842.50;5038909;28;20465;-77
2023/03/07 00:47:00;;;;;;;12.40;7.70;;;2.80;99.90;;;3.33;100.00;96838.59;5041942;28;20469;-76
2023/03/07 00:49:31;;;;;;;15.70;8.37;;;2.80;99.90;;;3.29;100.00;96834.75;5040011;28;20546;-76
2023/03/07 00:52:01;;;;;;;10.43;7.33;;;2.80;99.90;;;3.26;100.00;96837.69;5039816;28;20475;-76
2023/03/07 00:54:31;;;;;;;9.40;6.37;;;2.80;99.90;;;3.26;100.00;96837.69;5041406;28;20915;-76
2023/03/07 00:57:01;;;;;;;9.17;6.77;;;2.70;99.90;;;3.27;100.00;96839.28;5041408;28;20478;-77
2023/03/07 00:59:30;;;;;;;10.80;6.60;;;2.70;99.90;;;3.26;100.00;96832.53;5040329;28;20561;-76
2023/03/07 01:02:00;;;;;;;10.83;5.93;;;2.80;99.90;;;3.28;100.00;96837.50;5040854;28;20540;-76
2023/03/07 01:04:33;;;;;;;8.93;5.87;;;2.80;99.90;;;3.27;100.00;96834.13;5040618;28;20595;-76
2023/03/07 01:07:03;;;;;;;9.70;5.90;;;2.80;99.90;;;3.29;100.00;96837.34;5041991;28;20468;-76
2023/03/07 01:09:33;;;;;;;10.10;5.07;;;2.80;99.90;;;3.25;100.00;96835.28;5040326;28;20967;-76
2023/03/07 01:12:06;;;;;;;11.03;6.40;;;2.80;99.90;;;3.26;100.00;96826.56;5044769;28;20479;-76
2023/03/07 01:14:36;;;;;;;10.13;6.00;;;2.70;99.90;;;3.26;100.00;96819.63;5047036;28;20488;-77
2023/03/07 01:17:06;;;;;;;8.40;5.27;;;2.70;99.90;;;3.28;100.00;96820.25;5048361;28;20506;-76
2023/03/07 01:19:37;;;;;;;7.53;5.70;;;2.80;99.90;;;3.24;100.00;96815.56;5047475;28;20511;-76
2023/03/07 01:22:07;;;;;;;10.90;5.60;;;2.60;99.90;;;3.28;100.00;96811.69;5043511;28;20559;-76
2023/03/07 01:24:36;;;;;;;6.97;4.80;;;2.70;99.90;;;3.26;100.00;96811.88;5044117;28;20500;-76
2023/03/07 01:27:06;;;;;;;9.03;5.60;;;2.70;99.90;;;3.24;100.00;96808.63;5044141;28;20472;-76
2023/03/07 01:29:35;;;;;;;8.50;5.37;;;2.60;99.90;;;3.26;100.00;96809.28;5044894;28;20500;-76
2023/03/07 01:32:06;;;;;;;7.83;5.33;;;2.70;99.90;;;3.27;100.00;96803.13;5041476;28;20488;-76
2023/03/07 01:34:37;;;;;;;6.20;4.93;;;2.60;99.90;;;3.22;100.00;96805.44;5044398;28;20507;-77
2023/03/07 01:37:07;;;;;;;6.93;4.70;;;2.60;99.90;;;3.29;100.00;96796.03;5043586;28;20469;-76
2023/03/07 01:39:36;;;;;;;10.60;5.60;;;2.70;99.90;;;3.27;100.00;96799.72;5045142;28;20469;-76
2023/03/07 01:42:05;;;;;;;7.70;4.37;;;2.70;99.90;;;3.31;100.00;96794.06;5044292;28;20567;-76
2023/03/07 01:45:05;;;;;;;8.50;4.80;;;2.80;99.90;;;3.29;100.00;96798.59;5042780;28;20465;-76
2023/03/07 01:47:35;;;;;;;9.50;4.80;;;2.80;99.90;;;3.32;100.00;96789.69;5042339;28;20970;-76
2023/03/07 01:50:12;;;;;;;7.50;4.60;;;2.70;99.90;;;3.36;100.00;96793.56;5044625;28;22235;-76
2023/03/07 01:52:47;;;;;;;7.93;4.77;;;2.80;99.90;;;3.37;100.00;96793.34;5043446;28;20465;-76
2023/03/07 01:55:21;;;;;;;6.87;4.93;;;2.80;99.90;;;3.37;100.00;96788.19;5044184;28;20507;-76
2023/03/07 01:57:52;;;;;;;6.53;4.90;;;2.80;99.90;;;3.36;100.00;96775.47;5044614;28;20462;-76
2023/03/07 02:00:27;;;;;;;7.53;5.00;;;2.80;99.90;;;3.36;100.00;96778.06;5045422;28;20552;-76
2023/03/07 02:03:10;;;;;;;6.87;4.87;;;2.90;99.90;;;3.33;100.00;96763.69;5046602;28;20537;-76
2023/03/07 02:05:49;;;;;;;7.50;5.00;;;2.80;99.90;;;3.36;100.00;96765.13;5044949;28;20472;-76
2023/03/07 02:08:24;;;;;;;6.03;4.37;;;2.80;99.90;;;3.37;100.00;96756.38;5043123;28;20463;-76
2023/03/07 02:10:55;;;;;;;7.30;4.90;;;2.90;99.90;;;3.37;100.00;96751.22;5043982;28;20463;-76
2023/03/07 02:13:24;;;;;;;6.83;4.97;;;2.90;99.90;;;3.38;100.00;96748.47;5041542;28;20593;-76
2023/03/07 02:15:57;;;;;;;13.23;6.63;;;3.00;99.90;;;3.38;100.00;96743.31;5043180;28;20555;-76
2023/03/07 02:18:35;;;;;;;9.27;6.33;;;2.90;99.90;;;3.34;100.00;96747.22;5043339;28;20765;-76
2023/03/07 02:21:17;;;;;;;15.07;8.30;;;2.90;99.90;;;3.35;100.00;96738.50;5042441;28;20974;-76
2023/03/07 02:23:59;;;;;;;19.57;8.70;;;3.00;99.90;;;3.38;100.00;96743.31;5043030;28;20464;-76
2023/03/07 02:27:01;;;;;;;16.50;9.00;;;2.90;99.90;;;3.40;100.00;96741.34;5042725;28;20462;-76
2023/03/07 02:29:31;;;;;;;13.63;8.30;;;2.90;99.90;;;3.40;100.00;96737.97;5042804;28;20466;-76
2023/03/07 02:32:00;;;;;;;13.50;8.40;;;3.00;99.90;;;3.38;100.00;96742.50;5045679;28;20516;-76
2023/03/07 02:34:31;;;;;;;15.87;9.60;;;2.90;99.90;;;3.40;100.00;96731.00;5045737;28;20465;-76
2023/03/07 02:37:07;;;;;;;15.13;8.70;;;2.90;99.90;;;3.40;100.00;96741.34;5045612;28;20457;-76
2023/03/07 02:39:39;;;;;;;14.80;9.50;;;2.90;99.90;;;3.36;100.00;96739.31;5046370;28;20908;-76
2023/03/07 02:42:14;;;;;;;15.53;9.37;;;2.80;99.90;;;3.37;100.00;96733.94;5044334;28;20485;-76
2023/03/07 02:44:45;;;;;;;15.93;9.40;;;2.80;99.90;;;3.34;100.00;96734.28;5045614;28;20493;-75
2023/03/07 02:47:15;;;;;;;15.23;9.30;;;2.80;99.90;;;3.34;100.00;96731.72;5045807;28;20476;-76
2023/03/07 02:49:45;;;;;;;18.57;10.00;;;2.90;99.90;;;3.39;100.00;96738.94;5044658;28;20552;-76
2023/03/07 02:52:16;;;;;;;19.30;8.63;;;2.90;99.90;;;3.41;100.00;96737.78;5043116;28;20468;-76
2023/03/07 02:54:46;;;;;;;16.10;9.30;;;3.00;99.90;;;3.43;100.00;96740.22;5041949;28;20473;-75
2023/03/07 02:57:18;;;;;;;19.63;11.27;;;2.90;99.90;;;3.39;100.00;96737.16;5042284;28;21024;-76
2023/03/07 02:59:48;;;;;;;15.17;8.70;;;2.90;99.90;;;3.44;100.00;96726.28;5043660;28;20497;-76
2023/03/07 03:02:17;;;;;;;21.30;10.33;;;2.90;99.90;;;3.38;100.00;96722.66;5039070;28;20580;-76
2023/03/07 03:04:47;;;;;;;16.13;9.67;;;2.90;99.90;;;3.39;100.00;96729.44;5041062;28;20467;-76
2023/03/07 03:07:18;;;;;;;16.20;10.23;;;2.90;99.90;;;3.41;100.00;96724.06;5041520;28;20469;-76
2023/03/07 03:09:47;;;;;;;22.43;11.20;;;2.90;99.90;;;3.45;100.00;96723.56;5041506;28;20473;-76
2023/03/07 03:12:19;;;;;;;15.27;10.37;;;3.00;99.90;;;3.47;100.00;96728.56;5041568;28;20479;-76
2023/03/07 03:14:49;;;;;;;13.60;8.57;;;2.90;99.90;;;3.49;100.00;96719.66;5042014;28;21212;-76
2023/03/07 03:17:19;;;;;;;27.73;10.53;;;3.00;99.90;;;3.50;100.00;96716.09;5044528;28;20497;-76
2023/03/07 03:19:48;;;;;;;18.90;10.03;;;3.00;99.90;;;3.54;100.00;96719.09;5044984;28;20456;-76
2023/03/07 03:22:19;;;;;;;18.57;10.30;;;3.00;99.90;;;3.51;100.00;96701.38;5044955;28;20469;-76
2023/03/07 03:24:49;;;;;;;20.37;10.63;;;3.00;99.90;;;3.52;100.00;96706.38;5039862;28;20531;-76
2023/03/07 03:27:20;;;;;;;20.53;10.03;;;3.10;99.90;;;3.49;100.00;96704.13;5044597;28;20468;-76
2023/03/07 03:29:53;;;;;;;17.67;9.67;;;3.00;99.90;;;3.49;100.00;96704.13;5041688;28;20472;-76
2023/03/07 03:32:23;;;;;;;16.60;10.47;;;2.90;99.90;;;3.53;100.00;96700.22;5040597;28;20531;-75
2023/03/07 03:34:52;;;;;;;16.27;9.73;;;3.00;99.90;;;3.53;100.00;96700.22;5043682;28;20471;-76
2023/03/07 03:37:21;;;;;;;33.10;9.97;;;3.00;99.90;;;3.55;100.00;96702.63;5044600;28;20500;-76
2023/03/07 03:39:53;;;;;;;21.93;10.47;;;3.00;99.90;;;3.60;100.00;96691.75;5041043;28;20467;-76
2023/03/07 03:42:24;;;;;;;16.37;10.60;;;3.10;99.90;;;3.60;100.00;96695.16;5040793;28;20492;-76
2023/03/07 03:44:54;;;;;;;15.00;8.67;;;3.10;99.90;;;3.60;100.00;96686.59;5041891;28;20980;-76
2023/03/07 03:47:23;;;;;;;20.13;10.23;;;3.20;99.90;;;3.55;100.00;96685.34;5041980;28;20468;-76
2023/03/07 03:49:53;;;;;;;16.23;10.07;;;3.10;99.90;;;3.58;100.00;96688.53;5042394;28;20466;-76
2023/03/07 03:52:22;;;;;;;17.50;8.50;;;3.10;99.90;;;3.55;100.00;96681.94;5041205;28;20515;-76
2023/03/07 03:54:52;;;;;;;14.67;8.53;;;3.00;99.90;;;3.58;100.00;96675.63;5043979;28;20511;-76
2023/03/07 03:57:24;;;;;;;19.23;9.57;;;3.10;99.90;;;3.56;100.00;96673.22;5043760;28;20481;-76
2023/03/07 03:59:55;;;;;;;17.60;8.23;;;3.10;99.90;;;3.58;100.00;96670.44;5039291;28;20472;-76
2023/03/07 04:02:29;;;;;;;18.67;10.27;;;3.10;99.90;;;3.55;100.00;96674.19;5041871;28;20465;-76
2023/03/07 04:05:00;;;;;;;15.77;9.40;;;3.10;99.90;;;3.53;100.00;96663.25;5041529;28;20471;-76
2023/03/07 04:07:31;;;;;;;16.50;9.17;;;3.10;99.90;;;3.49;100.00;96667.97;5042391;28;20953;-76
2023/03/07 04:09:59;;;;;;;16.20;9.33;;;3.10;99.90;;;3.49;100.00;96665.38;5042537;28;20485;-76
2023/03/07 04:12:31;;;;;;;19.37;9.30;;;3.00;99.90;;;3.48;100.00;96661.19;5042820;28;20467;-76
2023/03/07 04:15:01;;;;;;;50.20;24.20;;;3.00;99.90;;;3.49;100.00;96649.06;5043359;28;20518;-76
2023/03/07 04:17:30;;;;;;;30.30;9.77;;;3.10;99.90;;;3.50;100.00;96661.81;5041900;28;20504;-75
2023/03/07 04:20:03;;;;;;;16.77;8.20;;;3.00;99.90;;;3.49;100.00;96660.22;5043348;28;20492;-76
2023/03/07 04:22:33;;;;;;;19.07;8.80;;;3.00;99.90;;;3.49;100.00;96655.03;5041414;28;20453;-75
2023/03/07 04:25:03;;;;;;;49.83;24.33;;;3.00;99.90;;;3.50;100.00;96656.66;5041248;28;20479;-74
2023/03/07 04:27:34;;;;;;;14.70;8.00;;;3.00;99.90;;;3.49;100.00;96647.28;5044218;28;20461;-75
2023/03/07 04:30:04;;;;;;;17.63;9.20;;;3.00;99.90;;;3.50;100.00;96642.94;5043195;28;20473;-75
2023/03/07 04:32:34;;;;;;;18.20;9.83;;;3.00;99.90;;;3.47;100.00;96638.91;5041589;28;20501;-76
2023/03/07 04:35:03;;;;;;;15.23;8.57;;;3.00;99.90;;;3.49;100.00;96638.75;5042999;28;20526;-76
2023/03/07 04:37:32;;;;;;;13.10;8.00;;;3.00;99.90;;;3.48;100.00;96640.50;5044167;28;21006;-76
2023/03/07 04:40:03;;;;;;;13.37;8.27;;;3.00;99.90;;;3.49;100.00;96625.81;5041140;28;20451;-75
2023/03/07 04:42:33;;;;;;;18.23;8.13;;;3.00;99.90;;;3.50;100.00;96632.59;5041448;28;20567;-75
2023/03/07 04:45:03;;;;;;;76.87;31.83;;;3.00;99.90;;;3.48;100.00;96625.00;5044498;28;20958;-76
2023/03/07 04:47:34;;;;;;;15.33;8.27;;;3.00;99.90;;;3.51;100.00;96632.41;5045662;28;20499;-76
2023/03/07 04:50:05;;;;;;;16.87;9.23;;;3.00;99.90;;;3.52;100.00;96626.25;5045588;28;20461;-76
2023/03/07 04:52:35;;;;;;;16.57;9.20;;;3.10;99.90;;;3.53;100.00;96630.47;5048302;28;20456;-76
2023/03/07 04:55:06;;;;;;;14.10;7.93;;;3.00;99.90;;;3.51;100.00;96624.66;5047548;28;20469;-75
2023/03/07 04:57:36;;;;;;;13.27;7.50;;;3.00;99.90;;;3.51;100.00;96619.50;5047231;28;20562;-76
2023/03/07 05:00:11;;;;;;;14.80;8.80;;;2.90;99.90;;;3.54;100.00;96619.13;5048143;28;20469;-75
2023/03/07 05:02:43;;;;;;;14.67;7.67;;;3.10;99.90;;;3.52;100.00;96621.09;5047600;28;20474;-76
2023/03/07 05:05:12;;;;;;;13.87;8.60;;;3.10;99.90;;;3.51;100.00;96614.31;5046630;28;20544;-76
2023/03/07 05:07:42;;;;;;;13.10;8.33;;;3.00;99.90;;;3.51;100.00;96618.69;5046601;28;20521;-76
2023/03/07 05:10:12;;;;;;;13.77;8.27;;;3.00;99.90;;;3.46;100.00;96614.06;5047479;28;20464;-76
2023/03/07 05:12:45;;;;;;;13.90;7.93;;;2.90;99.90;;;3.49;100.00;96610.31;5046858;28;20467;-79
2023/03/07 05:15:16;;;;;;;20.67;9.40;;;3.00;99.90;;;3.46;100.00;96608.91;5042251;28;20465;-76
2023/03/07 05:17:46;;;;;;;14.67;8.50;;;3.00;99.90;;;3.46;100.00;96602.94;5046370;28;20489;-76
2023/03/07 05:20:15;;;;;;;16.50;8.70;;;3.00;99.90;;;3.48;100.00;96609.50;5047134;28;20495;-75
2023/03/07 05:22:45;;;;;;;12.10;7.30;;;3.00;99.90;;;3.46;100.00;96600.34;5046205;28;20476;-76
2023/03/07 05:25:14;;;;;;;10.60;6.63;;;3.00;99.90;;;3.41;100.00;96600.88;5046850;28;21468;-76
2023/03/07 05:27:45;;;;;;;15.23;7.07;;;2.90;99.90;;;3.39;100.00;96596.88;5046064;28;20467;-75
2023/03/07 05:30:16;;;;;;;17.80;10.40;;;2.90;99.90;;;3.35;100.00;96596.41;5042382;28;20468;-74
2023/03/07 05:32:46;;;;;;;15.70;9.10;;;2.80;99.90;;;3.38;100.00;96596.06;5042751;28;21109;-76
2023/03/07 05:35:17;;;;;;;15.40;8.93;;;2.90;99.90;;;3.39;100.00;96604.63;5044108;28;20962;-76
2023/03/07 05:37:47;;;;;;;15.77;6.30;;;2.90;99.90;;;3.38;100.00;96596.06;5041676;28;20488;-75
2023/03/07 05:40:19;;;;;;;16.80;8.77;;;2.90;99.90;;;3.35;100.00;96599.00;5044714;28;20965;-76
2023/03/07 05:42:50;;;;;;;12.37;7.60;;;2.90;99.90;;;3.34;100.00;96596.59;5048154;28;20497;-75
2023/03/07 05:45:20;;;;;;;14.93;7.10;;;2.90;99.90;;;3.36;100.00;96592.88;5047324;28;20471;-75
2023/03/07 05:47:49;;;;;;;13.47;7.50;;;2.90;99.90;;;3.33;100.00;96602.75;5049622;28;20459;-75
2023/03/07 05:50:19;;;;;;;13.20;7.77;;;2.90;99.90;;;3.32;100.00;96599.38;5048607;28;20510;-75
2023/03/07 05:52:49;;;;;;;17.30;8.23;;;2.90;99.90;;;3.30;100.00;96596.13;5046622;28;20919;-75
2023/03/07 05:55:18;;;;;;;13.20;7.10;;;2.80;99.90;;;3.28;100.00;96602.47;5048528;28;20563;-75
2023/03/07 05:57:51;;;;;;;12.77;7.47;;;2.80;99.90;;;3.31;100.00;96592.59;5047272;28;20550;-76
2023/03/07 06:00:21;;;;;;;13.80;7.80;;;2.80;99.90;;;3.32;100.00;96589.03;5046501;28;20461;-75
2023/03/07 06:02:52;;;;;;;12.80;6.63;;;2.80;99.90;;;3.29;100.00;96597.13;5047508;28;21458;-75
2023/03/07 06:05:21;;;;;;;10.50;6.50;;;2.80;99.90;;;3.21;100.00;96596.41;5047707;28;20460;-75
2023/03/07 06:07:54;;;;;;;16.10;8.03;;;2.60;99.90;;;3.24;100.00;96596.03;5047836;28;20469;-75
2023/03/07 06:10:24;;;;;;;14.00;7.80;;;2.60;99.90;;;3.32;100.00;96588.22;5047195;28;20560;-75
2023/03/07 06:12:55;;;;;;;16.87;7.70;;;2.80;99.90;;;3.30;100.00;96598.72;5047188;28;20475;-74
2023/03/07 06:15:24;;;;;;;13.87;7.83;;;2.80;99.90;;;3.27;100.00;96596.50;5047107;28;20472;-75
2023/03/07 06:17:54;;;;;;;11.63;7.23;;;2.70;99.90;;;3.33;100.00;96603.53;5047316;28;20625;-75
2023/03/07 06:20:23;;;;;;;17.50;7.93;;;2.80;99.90;;;3.32;100.00;96596.78;5048762;28;20453;-75
2023/03/07 06:22:52;;;;;;;14.50;7.43;;;2.80;99.90;;;3.35;100.00;96599.00;5046978;28;20469;-75
2023/03/07 06:25:23;;;;;;;12.80;6.97;;;2.80;99.90;;;3.38;100.00;96593.47;5048476;28;20666;-75
2023/03/07 06:27:59;;;;;;;17.57;7.70;;;2.80;99.90;;;3.40;100.00;96595.91;5047854;28;20969;-75
2023/03/07 06:30:29;;;;;;;14.27;7.80;;;2.90;99.90;;;3.35;100.00;96593.84;5047843;28;20467;-75
2023/03/07 06:32:57;;;;;;;14.73;7.10;;;2.80;99.90;;;3.40;100.00;96598.47;5047929;28;20506;-75
2023/03/07 06:35:27;;;;;;;13.50;7.27;;;2.80;99.90;;;3.38;100.00;96601.22;5045765;28;21018;-75
2023/03/07 06:37:58;;;;;;;14.53;8.10;;;2.90;99.90;;;3.45;100.00;96604.69;5046674;28;20491;-75
2023/03/07 06:40:28;;;;;;;17.30;7.53;;;2.90;99.90;;;3.42;100.00;96599.91;5048084;28;20655;-75
2023/03/07 06:42:58;;;;;;;14.83;8.20;;;2.90;99.90;;;3.43;100.00;96601.50;5048021;28;20459;-75
2023/03/07 06:45:28;;;;;;;11.20;6.60;;;2.90;99.90;;;3.46;100.00;96605.50;5048080;28;20467;-75
2023/03/07 06:47:59;;;;;;;22.23;7.60;;;2.90;99.90;;;3.48;100.00;96600.97;5045497;28;20941;-75
2023/03/07 06:50:29;;;;;;;13.20;7.73;;;3.00;99.90;;;3.44;100.00;96608.25;5047405;28;20895;-75
2023/03/07 06:53:04;;;;;;;11.83;6.80;;;2.90;99.90;;;3.53;100.00;96599.47;5046987;28;20461;-75
2023/03/07 06:55:34;;;;;;;10.10;6.10;;;3.00;99.90;;;3.54;100.00;96603.63;5047052;28;20556;-75
2023/03/07 06:58:05;;;;;;;12.17;7.83;;;3.10;99.90;;;3.57;100.00;96602.50;5045485;28;20508;-75
2023/03/07 07:00:36;;;;;;;12.33;7.00;;;3.10;99.90;;;3.59;100.00;96602.28;5046639;28;20543;-75
2023/03/07 07:03:07;;;;;;;11.57;6.23;;;3.20;99.90;;;3.59;100.00;96604.88;5046959;28;20456;-75
2023/03/07 07:05:37;;;;;;;13.40;7.10;;;3.10;99.90;;;3.58;100.00;96596.31;5047334;28;20462;-75
2023/03/07 07:08:06;;;;;;;13.07;7.77;;;3.10;99.90;;;3.61;100.00;96608.88;5045929;28;20540;-75
2023/03/07 07:10:37;;;;;;;9.27;6.23;;;3.10;99.90;;;3.60;100.00;96598.72;5046008;28;21030;-75
2023/03/07 07:13:08;;;;;;;14.40;6.33;;;3.10;99.90;;;3.58;100.00;96595.50;5047006;28;20580;-75
2023/03/07 07:15:38;;;;;;;18.60;6.50;;;3.10;99.90;;;3.65;100.00;96596.41;5046432;28;20470;-75
2023/03/07 07:18:08;;;;;;;12.47;7.33;;;3.20;99.90;;;3.67;100.00;96597.84;5045893;28;20580;-75
2023/03/07 07:20:39;;;;;;;12.23;6.83;;;3.20;99.90;;;3.63;100.00;96595.78;5045213;28;20465;-75
2023/03/07 07:23:09;;;;;;;12.07;7.50;;;3.10;99.90;;;3.63;100.00;96598.38;5047549;28;20948;-75
2023/03/07 07:25:40;;;;;;;12.07;6.40;;;3.10;99.90;;;3.64;100.00;96594.81;5046470;28;20460;-75
2023/03/07 07:28:12;;;;;;;8.43;5.87;;;3.10;99.90;;;3.63;100.00;96593.19;5047743;28;20497;-75
2023/03/07 07:30:41;;;;;;;14.77;7.53;;;3.10;99.90;;;3.68;100.00;96589.09;5047010;28;20465;-75
2023/03/07 07:33:11;;;;;;;14.50;7.23;;;3.10;99.90;;;3.67;100.00;96584.91;5046310;28;20540;-75
2023/03/07 07:35:43;;;;;;;8.57;4.23;;;3.10;99.90;;;3.66;100.00;96591.06;5045889;28;20819;-75
2023/03/07 07:38:14;;;;;;;8.63;5.63;;;3.10;99.90;;;3.70;100.00;96589.72;5046383;28;20568;-75
2023/03/07 07:40:43;;;;;;;9.77;6.10;;;3.10;99.90;;;3.73;100.00;96585.97;5047493;28;20595;-75
2023/03/07 07:43:17;;;;;;;12.63;6.67;;;3.10;99.90;;;3.71;100.00;96585.38;5046258;28;20467;-75
2023/03/07 07:45:47;;;;;;;12.43;6.60;;;3.10;99.90;;;3.71;100.00;96582.78;5047043;28;20551;-75
2023/03/07 07:48:18;;;;;;;11.10;6.17;;;3.10;99.90;;;3.78;100.00;96584.47;5047089;28;20473;-75
2023/03/07 07:50:48;;;;;;;9.20;5.80;;;3.20;99.90;;;3.80;100.00;96573.94;5045931;28;20468;-75
2023/03/07 07:53:17;;;;;;;11.20;6.33;;;3.30;99.90;;;3.77;100.00;96576.88;5045182;28;20952;-75
2023/03/07 07:55:47;;;;;;;9.93;6.40;;;3.20;99.90;;;3.79;100.00;96570.53;5046086;28;20465;-76
2023/03/07 07:58:19;;;;;;;8.07;5.37;;;3.30;99.90;;;3.81;100.00;96578.13;5046254;28;21479;-75
2023/03/07 08:00:48;;;;;;;10.07;6.33;;;3.30;99.90;;;3.84;100.00;96572.59;5045528;28;20512;-75
2023/03/07 08:03:17;;;;;;;15.27;7.57;;;3.30;99.90;;;3.81;100.00;96581.53;5046140;28;20539;-76
2023/03/07 08:05:49;;;;;;;14.30;7.23;;;3.30;99.90;;;3.82;100.00;96559.03;5045170;28;21367;-75
2023/03/07 08:08:20;;;;;;;11.20;6.07;;;3.30;99.90;;;3.83;100.00;96566.63;5046375;28;20466;-75
2023/03/07 08:10:50;;;;;;;10.67;6.67;;;3.40;99.90;;;3.88;100.00;96555.75;5046007;28;20496;-75
2023/03/07 08:13:21;;;;;;;12.20;6.50;;;3.40;99.90;;;3.91;100.00;96563.94;5045211;28;20477;-75
2023/03/07 08:15:51;;;;;;;13.03;6.03;;;3.50;99.90;;;3.91;100.00;96557.97;5044124;28;20469;-75
2023/03/07 08:18:20;;;;;;;10.47;5.73;;;3.50;99.90;;;3.91;100.00;96557.97;5046750;28;20523;-75
2023/03/07 08:20:51;;;;;;;12.10;6.30;;;3.50;99.90;;;3.88;100.00;96550.56;5049615;28;20993;-76
2023/03/07 08:23:21;;;;;;;15.10;7.27;;;3.40;99.90;;;3.82;100.00;96569.38;5049994;28;20475;-75
2023/03/07 08:25:51;;;;;;;11.43;5.97;;;3.30;99.90;;;3.89;100.00;96559.91;5050332;28;20543;-75
2023/03/07 08:28:23;;;;;;;10.53;6.27;;;3.40;99.90;;;3.92;100.00;96568.09;5050167;28;20487;-75
2023/03/07 08:30:52;;;;;;;10.63;5.97;;;3.50;99.90;;;3.94;100.00;96562.75;5050342;28;20546;-75
2023/03/07 08:33:22;;;;;;;10.90;5.80;;;3.50;99.90;;;3.93;100.00;96561.94;5048376;28;20457;-75
2023/03/07 08:35:53;;;;;;;12.50;5.57;;;3.50;99.90;;;3.98;100.00;96564.00;5049787;28;20454;-75
2023/03/07 08:38:23;;;;;;;10.50;5.80;;;3.50;99.90;;;4.00;100.00;96551.69;5049394;28;20860;-75
2023/03/07 08:41:00;;;;;;;8.90;5.13;;;3.50;99.90;;;4.04;100.00;96552.91;5049282;28;20472;-76
2023/03/07 08:43:33;;;;;;;9.10;5.50;;;3.60;99.90;;;4.06;100.00;96556.16;5050768;28;20871;-75
2023/03/07 08:46:04;;;;;;;7.77;5.37;;;3.60;99.90;;;4.09;100.00;96560.13;5050120;28;20532;-75
2023/03/07 08:48:34;;;;;;;13.53;5.83;;;3.60;99.90;;;4.09;100.00;96550.59;5049175;28;20550;-75
2023/03/07 08:51:10;;;;;;;9.27;6.27;;;3.60;99.90;;;4.14;100.00;96545.66;5049679;28;20512;-75
2023/03/07 08:53:41;;;;;;;10.80;5.77;;;3.70;99.90;;;4.16;100.00;96551.47;5049154;28;20467;-75
2023/03/07 08:56:14;;;;;;;6.70;3.60;;;3.60;99.90;;;4.15;100.00;96549.06;5049859;28;20565;-75
2023/03/07 08:58:46;;;;;;;15.23;5.93;;;3.60;99.90;;;4.23;100.00;96547.16;5048442;28;20473;-75
2023/03/07 09:01:15;;;;;;;9.50;6.03;;;3.70;99.90;;;4.25;100.00;96547.78;5050648;28;21031;-75
2023/03/07 09:03:46;;;;;;;10.03;5.10;;;3.70;99.90;;;4.24;100.00;96546.16;5048856;28;20461;-76
2023/03/07 09:06:20;;;;;;;9.43;6.23;;;3.70;99.90;;;4.26;100.00;96540.81;5048476;28;20458;-75
2023/03/07 09:08:51;;;;;;;9.03;6.00;;;3.70;99.90;;;4.27;100.00;96540.59;5049876;28;21041;-75
2023/03/07 09:11:21;;;;;;;9.47;4.70;;;3.70;99.90;;;4.31;100.00;96538.47;5049588;28;20478;-75
2023/03/07 09:13:52;;;;;;;13.00;7.13;;;3.80;99.90;;;4.34;100.00;96522.59;5048858;28;20550;-75
2023/03/07 09:16:23;;;;;;;7.83;5.67;;;3.80;99.90;;;4.33;100.00;96536.50;5049159;28;20473;-75
2023/03/07 09:18:54;;;;;;;15.13;7.00;;;3.70;99.90;;;4.45;100.00;96532.41;5048553;28;20484;-76
2023/03/07 09:21:24;;;;;;;9.47;5.83;;;3.90;99.90;;;4.50;100.00;96528.31;5049642;28;20460;-75
2023/03/07 09:23:54;;;;;;;10.67;6.20;;;4.00;99.90;;;4.55;100.00;96536.28;5048063;28;20470;-75
2023/03/07 09:26:23;;;;;;;13.27;6.00;;;4.10;99.90;;;4.58;100.00;96538.50;5049670;28;20512;-76
2023/03/07 09:28:54;;;;;;;7.20;5.00;;;4.10;99.90;;;4.59;100.00;96526.38;5049122;28;20489;-75
2023/03/07 09:31:24;;;;;;;10.83;5.87;;;4.00;99.90;;;4.60;100.00;96519.41;5047537;28;20492;-75
2023/03/07 09:33:53;;;;;;;10.77;5.50;;;4.00;99.90;;;4.68;100.00;96534.81;5047817;28;20472;-75
2023/03/07 09:36:22;;;;;;;11.40;6.27;;;4.10;99.90;;;4.73;100.00;96533.25;5049613;28;20460;-75
2023/03/07 09:38:52;;;;;;;11.90;6.03;;;4.20;99.90;;;4.72;100.00;96536.03;5047908;28;20489;-75
2023/03/07 09:41:52;;;;;;;10.50;6.67;;;4.10;99.90;;;4.79;100.00;96523.94;5048820;28;20494;-75
2023/03/07 09:44:41;;;;;;;10.20;6.37;;;4.30;99.90;;;4.88;100.00;96515.03;5047390;28;20462;-75
2023/03/07 09:47:39;;;;;;;10.60;5.80;;;4.40;99.90;;;4.90;100.00;96526.78;5047778;28;20846;-75
2023/03/07 09:50:20;;;;;;;6.93;5.00;;;4.40;99.90;;;4.87;100.00;96513.44;5049385;28;20462;-75
2023/03/07 09:52:57;;;;;;;11.10;5.50;;;4.40;99.90;;;4.87;100.00;96509.06;5046750;28;20471;-75
2023/03/07 09:55:31;;;;;;;13.00;5.87;;;4.40;99.90;;;4.94;100.00;96509.09;5047589;28;20458;-75
2023/03/07 09:58:08;;;;;;;10.83;5.53;;;4.50;99.90;;;4.89;100.00;96509.69;5048236;28;20475;-76
2023/03/07 10:00:44;;;;;;;9.30;6.00;;;4.40;99.90;;;4.98;100.00;96505.13;5047953;28;20573;-76
2023/03/07 10:03:30;;;;;;;13.80;6.87;;;4.50;99.90;;;5.02;100.00;96490.81;5047070;28;20545;-75
2023/03/07 10:06:11;;;;;;;10.27;6.20;;;4.50;99.90;;;5.08;100.00;96497.81;5048015;28;20542;-75
2023/03/07 10:08:41;;;;;;;11.20;6.40;;;4.60;99.90;;;5.16;100.00;96494.28;5048616;28;20466;-75
2023/03/07 10:11:29;;;;;;;12.40;6.67;;;4.70;99.90;;;5.16;100.00;96491.69;5046853;28;20511;-75
2023/03/07 10:14:41;;;;;;;7.23;4.97;;;4.70;99.90;;;5.11;100.00;96489.66;5046466;28;20995;-75
2023/03/07 10:17:25;;;;;;;9.97;6.10;;;4.60;99.90;;;5.13;100.00;96487.69;5048411;28;20455;-75
2023/03/07 10:20:07;;;;;;;9.50;6.37;;;4.60;99.90;;;5.21;100.00;96479.75;5046516;28;20502;-75
2023/03/07 10:22:49;;;;;;;9.23;5.50;;;4.70;99.90;;;5.23;100.00;96479.56;5048245;28;21007;-75
2023/03/07 10:25:27;;;;;;;11.87;6.23;;;4.80;99.90;;;5.24;100.00;96486.38;5047462;28;20936;-75
2023/03/07 10:28:12;;;;;;;12.30;6.80;;;4.70;99.90;;;5.25;100.00;96468.00;5047137;28;20972;-75
2023/03/07 10:30:43;;;;;;;6.17;4.50;;;4.80;99.90;;;5.24;100.00;96471.59;5047758;28;20532;-75
2023/03/07 10:33:19;;;;;;;10.60;6.10;;;4.70;99.90;;;5.26;100.00;96471.41;5046053;28;20843;-76
2023/03/07 10:35:57;;;;;;;9.53;6.00;;;4.80;99.90;;;5.30;100.00;96457.88;5046751;28;20466;-75
2023/03/07 10:38:35;;;;;;;9.53;6.13;;;4.80;99.90;;;5.39;100.00;96458.50;5046965;28;20459;-75
2023/03/07 10:41:15;;;;;;;8.53;4.93;;;4.90;99.90;;;5.43;100.00;96463.13;5047702;28;20495;-75